Time;durP1;ratioP1;P1;durP2;ratioP2;P2;SDS_P1;SDS_P2;PMS_P1;PMS_P2;Temp;Humidity;BMP_temperature;BMP_pressure;BME280_temperature;BME280_humidity;BME280_pressure;Samples;Min_cycle;Max_cycle;Signal;HPM_P1;HPM_P2
2021/10/20 00:02:22;;;;;;;4.97;4.00;;;13.60;89.20;;;;;;5097877;28;20438;-38
2021/10/20 00:04:48;;;;;;;5.73;4.70;;;13.60;89.10;;;;;;5097825;28;20200;-40
2021/10/20 00:07:14;;;;;;;6.03;5.43;;;13.60;89.10;;;;;;5080018;28;20276;-38
2021/10/20 00:09:39;;;;;;;4.83;4.43;;;13.60;89.00;;;;;;5077756;28;20516;-42
2021/10/20 00:12:06;;;;;;;4.57;3.93;;;13.60;89.00;;;;;;5076188;28;20177;-38
2021/10/20 00:14:31;;;;;;;6.13;5.10;;;13.60;89.00;;;;;;5077044;28;20170;-38
2021/10/20 00:16:57;;;;;;;5.70;4.30;;;13.60;88.90;;;;;;5076915;28;20841;-43
2021/10/20 00:19:23;;;;;;;4.93;4.43;;;13.50;88.90;;;;;;5077810;28;20570;-43
2021/10/20 00:21:48;;;;;;;6.70;4.90;;;13.50;89.00;;;;;;5076648;28;20201;-38
2021/10/20 00:24:14;;;;;;;8.20;5.03;;;13.50;89.00;;;;;;5077283;28;20192;-39
2021/10/20 00:26:40;;;;;;;5.37;4.77;;;13.50;89.10;;;;;;5076916;28;20177;-41
2021/10/20 00:29:05;;;;;;;7.83;4.77;;;13.50;89.20;;;;;;5077033;28;20244;-39
2021/10/20 00:31:31;;;;;;;4.93;4.53;;;13.50;89.20;;;;;;5077391;28;20521;-39
2021/10/20 00:33:57;;;;;;;8.20;5.00;;;13.50;89.30;;;;;;5077406;28;20506;-39
2021/10/20 00:36:23;;;;;;;5.20;4.60;;;13.50;89.20;;;;;;5076950;28;20416;-40
2021/10/20 00:38:49;;;;;;;5.57;4.67;;;13.50;89.30;;;;;;5076618;28;20184;-39
2021/10/20 00:41:15;;;;;;;5.47;4.93;;;13.50;89.30;;;;;;5076430;28;20266;-40
2021/10/20 00:43:43;;;;;;;5.03;4.50;;;13.50;89.30;;;;;;5092095;28;20274;-41
2021/10/20 00:46:09;;;;;;;4.10;3.70;;;13.50;89.30;;;;;;5096224;28;20211;-39
2021/10/20 00:48:35;;;;;;;5.23;4.50;;;13.50;89.30;;;;;;5097194;28;20450;-38
2021/10/20 00:51:01;;;;;;;5.47;4.93;;;13.50;89.30;;;;;;5097272;28;20248;-39
2021/10/20 00:53:26;;;;;;;5.20;4.70;;;13.50;89.40;;;;;;5096144;28;20433;-39
2021/10/20 00:55:52;;;;;;;4.63;3.87;;;13.40;89.20;;;;;;5096741;28;20423;-39
2021/10/20 00:58:18;;;;;;;5.30;4.47;;;13.40;89.20;;;;;;5096065;28;20276;-39
2021/10/20 01:00:44;;;;;;;4.43;4.07;;;13.40;89.20;;;;;;5096924;28;20411;-39
2021/10/20 01:03:10;;;;;;;5.10;4.60;;;13.40;89.10;;;;;;5095669;28;20461;-38
2021/10/20 01:05:35;;;;;;;5.37;4.50;;;13.40;88.90;;;;;;5095338;28;20212;-38
2021/10/20 01:08:01;;;;;;;4.20;3.80;;;13.40;88.70;;;;;;5091416;28;20277;-38
2021/10/20 01:10:27;;;;;;;4.40;3.90;;;13.40;88.60;;;;;;5096438;28;20590;-37
2021/10/20 01:12:53;;;;;;;4.37;3.97;;;13.40;88.40;;;;;;5096469;28;20458;-39
2021/10/20 01:15:25;;;;;;;4.57;4.17;;;13.40;88.40;;;;;;5096113;28;20846;-40
2021/10/20 01:17:51;;;;;;;4.23;3.70;;;13.40;88.20;;;;;;5096286;28;20278;-39
2021/10/20 01:20:19;;;;;;;5.10;3.67;;;13.40;88.20;;;;;;5098240;28;20717;-40
2021/10/20 01:22:45;;;;;;;4.23;3.50;;;13.40;88.20;;;;;;5097881;28;20417;-38
2021/10/20 01:25:11;;;;;;;4.47;4.07;;;13.30;88.10;;;;;;5100173;28;20419;-38
2021/10/20 01:27:37;;;;;;;4.13;3.73;;;13.30;88.00;;;;;;5080807;28;20271;-38
2021/10/20 01:30:04;;;;;;;4.73;4.00;;;13.30;88.00;;;;;;5079864;28;20598;-38
2021/10/20 01:32:30;;;;;;;4.10;3.67;;;13.30;88.00;;;;;;5080257;28;20437;-39
2021/10/20 01:34:56;;;;;;;8.03;3.90;;;13.30;87.80;;;;;;5080002;28;20571;-41
2021/10/20 01:37:23;;;;;;;4.33;3.80;;;13.30;87.50;;;;;;5080494;28;20178;-39
2021/10/20 01:39:49;;;;;;;4.30;3.30;;;13.30;87.20;;;;;;5079781;28;20427;-40
2021/10/20 01:42:15;;;;;;;4.30;3.90;;;13.30;87.00;;;;;;5079814;28;20423;-39
2021/10/20 01:44:40;;;;;;;4.60;3.73;;;13.30;86.80;;;;;;5080386;28;20436;-42
2021/10/20 01:47:10;;;;;;;4.00;3.60;;;13.30;86.80;;;;;;5082193;28;20801;-42
2021/10/20 01:49:36;;;;;;;4.47;3.90;;;13.30;86.70;;;;;;5079229;28;20733;-42
2021/10/20 01:52:02;;;;;;;5.50;4.27;;;13.30;86.60;;;;;;5079357;28;20774;-38
2021/10/20 01:54:28;;;;;;;5.60;4.20;;;13.30;86.50;;;;;;5079489;28;20435;-38
2021/10/20 01:56:54;;;;;;;4.00;3.60;;;13.30;86.50;;;;;;5078958;28;20188;-40
2021/10/20 01:59:20;;;;;;;4.20;3.80;;;13.20;86.30;;;;;;5094184;28;20601;-38
2021/10/20 02:01:45;;;;;;;6.40;3.90;;;13.20;86.20;;;;;;5100074;28;20414;-37
2021/10/20 02:04:13;;;;;;;4.23;3.83;;;13.20;86.20;;;;;;5099658;28;20262;-40
2021/10/20 02:06:41;;;;;;;3.77;3.40;;;13.20;86.30;;;;;;5099639;28;20189;-39
2021/10/20 02:09:07;;;;;;;4.50;4.10;;;13.20;86.30;;;;;;5099583;28;20423;-40
2021/10/20 02:11:34;;;;;;;5.73;4.53;;;13.20;86.40;;;;;;5099441;28;20462;-39
2021/10/20 02:14:01;;;;;;;6.20;4.17;;;13.20;86.40;;;;;;5099287;28;20435;-38
2021/10/20 02:16:27;;;;;;;4.80;3.70;;;13.20;86.40;;;;;;5099803;28;20480;-39
2021/10/20 02:18:53;;;;;;;4.57;3.97;;;13.10;86.30;;;;;;5098269;28;20842;-40
2021/10/20 02:21:19;;;;;;;6.33;3.97;;;13.10;86.20;;;;;;5099372;28;20195;-39
2021/10/20 02:23:45;;;;;;;3.93;3.53;;;13.10;86.20;;;;;;5099488;28;20430;-41
2021/10/20 02:26:11;;;;;;;3.87;3.47;;;13.10;86.20;;;;;;5099555;28;20395;-40
2021/10/20 02:28:36;;;;;;;4.40;4.00;;;13.10;86.20;;;;;;5098979;28;20217;-41
2021/10/20 02:31:02;;;;;;;4.70;3.50;;;13.10;86.20;;;;;;5100340;28;20428;-38
2021/10/20 02:33:27;;;;;;;5.00;3.67;;;13.10;86.20;;;;;;5099185;28;20693;-39
2021/10/20 02:35:53;;;;;;;5.00;4.20;;;13.10;86.20;;;;;;5098899;28;20177;-41
2021/10/20 02:38:19;;;;;;;4.07;3.67;;;13.10;86.10;;;;;;5099395;28;20173;-38
2021/10/20 02:40:45;;;;;;;4.17;3.77;;;13.10;86.00;;;;;;5099342;28;20426;-42
2021/10/20 02:43:11;;;;;;;4.10;3.53;;;13.10;86.00;;;;;;5098893;28;20593;-40
2021/10/20 02:45:36;;;;;;;5.63;3.57;;;13.10;86.00;;;;;;5098734;28;20478;-42
2021/10/20 02:48:02;;;;;;;3.70;3.40;;;13.10;86.60;;;;;;5097713;28;20275;-39
2021/10/20 02:50:29;;;;;;;3.90;3.57;;;13.10;85.90;;;;;;5098364;28;20618;-42
2021/10/20 02:52:55;;;;;;;4.80;4.20;;;13.10;85.90;;;;;;5098937;28;20456;-39
2021/10/20 02:55:21;;;;;;;4.50;4.10;;;13.10;85.90;;;;;;5098742;28;20479;-37
2021/10/20 02:57:47;;;;;;;4.27;3.87;;;13.00;85.80;;;;;;5098666;28;20815;-40
2021/10/20 03:00:13;;;;;;;4.70;4.00;;;13.00;85.90;;;;;;5099011;28;20487;-39
2021/10/20 03:02:39;;;;;;;5.30;4.80;;;13.00;86.00;;;;;;5099030;28;20185;-46
2021/10/20 03:05:05;;;;;;;4.23;3.83;;;13.10;86.20;;;;;;5098722;28;20434;-42
2021/10/20 03:07:31;;;;;;;5.00;4.17;;;13.00;86.20;;;;;;5097358;28;20216;-39
2021/10/20 03:09:56;;;;;;;4.73;4.27;;;13.00;86.20;;;;;;5097221;28;20434;-40
2021/10/20 03:12:22;;;;;;;5.03;4.53;;;13.00;86.30;;;;;;5097380;28;20415;-38
2021/10/20 03:14:48;;;;;;;4.33;3.93;;;13.00;86.50;;;;;;5097576;28;20647;-40
2021/10/20 03:17:15;;;;;;;5.83;4.07;;;13.00;86.50;;;;;;5097209;28;20431;-38
2021/10/20 03:19:41;;;;;;;4.50;3.70;;;13.00;86.60;;;;;;5098179;28;20264;-39
2021/10/20 03:22:07;;;;;;;4.10;3.50;;;13.00;86.70;;;;;;5097926;28;20817;-39
2021/10/20 03:24:34;;;;;;;5.13;3.80;;;13.00;86.70;;;;;;5097816;28;20183;-40
2021/10/20 03:27:00;;;;;;;5.17;4.27;;;13.00;86.70;;;;;;5097942;28;20717;-39
2021/10/20 03:29:26;;;;;;;3.87;3.53;;;13.00;86.80;;;;;;5098184;28;20489;-41
2021/10/20 03:31:52;;;;;;;3.87;3.47;;;12.90;86.80;;;;;;5098062;28;20890;-40
2021/10/20 03:34:17;;;;;;;4.80;3.63;;;12.90;86.90;;;;;;5097851;28;20177;-39
2021/10/20 03:36:43;;;;;;;4.17;3.77;;;12.90;87.00;;;;;;5097125;28;20179;-41
2021/10/20 03:39:09;;;;;;;4.40;3.93;;;12.90;87.00;;;;;;5096368;28;20223;-41
2021/10/20 03:41:35;;;;;;;4.43;3.37;;;12.90;87.10;;;;;;5097822;28;20169;-41
2021/10/20 03:44:00;;;;;;;4.77;4.30;;;12.90;87.20;;;;;;5096830;28;20234;-41
2021/10/20 03:46:26;;;;;;;4.63;3.70;;;12.80;87.20;;;;;;5097065;28;20184;-42
2021/10/20 03:48:51;;;;;;;4.10;3.80;;;12.80;87.30;;;;;;5097175;28;20180;-39
2021/10/20 03:51:17;;;;;;;4.97;4.47;;;12.80;87.40;;;;;;5096878;28;20198;-44
2021/10/20 03:53:43;;;;;;;4.73;4.30;;;12.80;87.50;;;;;;5096779;28;20169;-42
2021/10/20 03:56:08;;;;;;;4.67;4.10;;;12.70;87.50;;;;;;5097239;28;20183;-39
2021/10/20 03:58:34;;;;;;;4.13;3.80;;;12.70;87.60;;;;;;5097070;28;20202;-38
2021/10/20 04:00:59;;;;;;;4.50;4.10;;;12.80;87.80;;;;;;5096507;28;20231;-40
2021/10/20 04:03:25;;;;;;;4.23;3.83;;;12.70;87.60;;;;;;5093658;28;20182;-42
2021/10/20 04:05:51;;;;;;;4.43;4.03;;;12.70;87.50;;;;;;5088403;28;20475;-42
2021/10/20 04:08:16;;;;;;;4.20;3.80;;;12.70;87.40;;;;;;5088447;28;20177;-42
2021/10/20 04:10:42;;;;;;;4.43;4.00;;;12.80;87.30;;;;;;5087758;28;20204;-45
2021/10/20 04:13:08;;;;;;;4.70;4.20;;;12.80;87.10;;;;;;5086362;28;20176;-43
2021/10/20 04:15:34;;;;;;;4.90;4.17;;;12.80;86.90;;;;;;5088090;28;20285;-43
2021/10/20 04:17:59;;;;;;;4.30;3.90;;;12.80;86.90;;;;;;5085758;28;20543;-42
2021/10/20 04:20:25;;;;;;;4.70;4.30;;;12.80;86.80;;;;;;5084277;28;20220;-42
2021/10/20 04:22:51;;;;;;;4.30;3.90;;;12.80;86.80;;;;;;5084267;28;20259;-42
2021/10/20 04:25:18;;;;;;;5.27;4.73;;;12.80;86.80;;;;;;5083850;28;20582;-41
2021/10/20 04:27:45;;;;;;;4.90;4.43;;;12.80;86.70;;;;;;5091410;28;20415;-40
2021/10/20 04:30:12;;;;;;;5.00;3.53;;;12.80;86.70;;;;;;5094472;28;20490;-41
2021/10/20 04:32:38;;;;;;;4.23;3.77;;;12.80;87.40;;;;;;5079636;28;20412;-41
2021/10/20 04:35:05;;;;;;;4.27;3.87;;;12.80;86.70;;;;;;5074258;28;20551;-40
2021/10/20 04:37:31;;;;;;;4.70;4.13;;;12.80;86.70;;;;;;5087067;28;20415;-42
2021/10/20 04:39:58;;;;;;;5.70;3.83;;;12.70;86.70;;;;;;5093306;28;20431;-41
2021/10/20 04:42:25;;;;;;;5.53;4.50;;;12.70;86.70;;;;;;5078968;28;20738;-41
2021/10/20 04:44:51;;;;;;;4.83;4.20;;;12.70;86.80;;;;;;5073571;28;20438;-44
2021/10/20 04:47:16;;;;;;;4.00;3.60;;;12.70;86.90;;;;;;5091929;28;20525;-41
2021/10/20 04:49:43;;;;;;;4.50;4.00;;;12.70;87.00;;;;;;5094037;28;20518;-43
2021/10/20 04:52:09;;;;;;;4.67;4.13;;;12.60;87.00;;;;;;5091569;28;20212;-41
2021/10/20 04:54:34;;;;;;;4.43;4.03;;;12.60;87.00;;;;;;5074824;28;20436;-42
2021/10/20 04:57:00;;;;;;;4.20;3.80;;;12.60;87.10;;;;;;5074949;28;20428;-41
2021/10/20 04:59:28;;;;;;;4.47;4.07;;;12.60;87.10;;;;;;5097202;28;20181;-42
2021/10/20 05:01:54;;;;;;;4.50;4.10;;;12.60;87.20;;;;;;5099783;28;20207;-43
2021/10/20 05:04:19;;;;;;;4.17;3.77;;;12.60;87.10;;;;;;5080200;28;20857;-43
2021/10/20 05:06:45;;;;;;;4.37;3.97;;;12.50;87.00;;;;;;5080509;28;20250;-44
2021/10/20 05:09:11;;;;;;;4.07;3.73;;;12.50;87.00;;;;;;5096973;28;20317;-42
2021/10/20 05:11:36;;;;;;;4.43;3.80;;;12.50;87.00;;;;;;5100423;28;20273;-42
2021/10/20 05:14:03;;;;;;;6.10;4.57;;;12.50;87.00;;;;;;5099304;28;20306;-42
2021/10/20 05:16:33;;;;;;;4.20;3.80;;;12.50;87.10;;;;;;5081117;28;20256;-42
2021/10/20 05:19:00;;;;;;;4.93;4.43;;;12.50;87.10;;;;;;5078872;28;20522;-42
2021/10/20 05:21:26;;;;;;;4.93;4.37;;;12.50;87.20;;;;;;5079400;28;20980;-42
2021/10/20 05:23:53;;;;;;;4.87;4.43;;;12.50;87.20;;;;;;5078686;28;20415;-43
2021/10/20 05:26:25;;;;;;;4.40;3.90;;;12.50;87.10;;;;;;5080161;28;20473;-44
2021/10/20 05:28:51;;;;;;;4.53;3.90;;;12.40;87.10;;;;;;5077885;28;20470;-42
2021/10/20 05:31:17;;;;;;;5.47;4.10;;;12.40;87.20;;;;;;5098679;28;20895;-40
2021/10/20 05:33:43;;;;;;;3.90;3.60;;;12.40;87.30;;;;;;5098706;28;20417;-43
2021/10/20 05:36:09;;;;;;;5.43;3.60;;;12.40;87.20;;;;;;5091663;28;20799;-40
2021/10/20 05:38:36;;;;;;;5.80;4.57;;;12.40;87.30;;;;;;5078705;28;20245;-43
2021/10/20 05:41:01;;;;;;;7.13;4.50;;;12.40;87.20;;;;;;5077825;28;20201;-41
2021/10/20 05:43:27;;;;;;;4.30;3.90;;;12.40;87.10;;;;;;5077290;28;20408;-43
2021/10/20 05:45:53;;;;;;;4.50;3.80;;;12.40;87.00;;;;;;5076711;28;20459;-40
2021/10/20 05:48:22;;;;;;;4.83;4.43;;;12.40;87.10;;;;;;5077303;28;20645;-45
2021/10/20 05:50:52;;;;;;;5.77;4.80;;;12.40;87.10;;;;;;5077405;28;20220;-42
2021/10/20 05:53:17;;;;;;;4.63;3.90;;;12.40;87.10;;;;;;5078588;28;20415;-41
2021/10/20 05:55:44;;;;;;;3.77;3.47;;;12.40;87.20;;;;;;5076995;28;20491;-42
2021/10/20 05:58:11;;;;;;;4.70;4.30;;;12.40;87.20;;;;;;5076896;28;20196;-40
2021/10/20 06:00:36;;;;;;;4.43;4.03;;;12.40;87.20;;;;;;5075950;28;20431;-40
2021/10/20 06:03:03;;;;;;;5.67;3.87;;;12.40;87.20;;;;;;5077289;28;20512;-40
2021/10/20 06:05:29;;;;;;;5.03;4.30;;;12.40;87.10;;;;;;5077430;28;20181;-42
2021/10/20 06:07:55;;;;;;;4.70;4.13;;;12.40;86.90;;;;;;5077355;28;20473;-40
2021/10/20 06:10:20;;;;;;;4.80;4.30;;;12.50;87.00;;;;;;5076607;28;20511;-41
2021/10/20 06:12:46;;;;;;;5.03;4.53;;;12.50;86.90;;;;;;5077970;28;20197;-41
2021/10/20 06:15:12;;;;;;;4.20;3.80;;;12.60;87.30;;;;;;5080445;28;20239;-41
2021/10/20 06:17:38;;;;;;;5.23;4.10;;;12.90;87.30;;;;;;5087385;28;20244;-42
2021/10/20 06:20:05;;;;;;;3.67;3.30;;;13.40;86.20;;;;;;5078941;28;20423;-42
2021/10/20 06:22:30;;;;;;;4.23;3.83;;;13.70;84.80;;;;;;5078296;28;20507;-41
2021/10/20 06:24:56;;;;;;;3.93;3.53;;;13.90;83.90;;;;;;5078691;28;20485;-44
2021/10/20 06:27:22;;;;;;;4.87;3.73;;;14.00;83.40;;;;;;5078502;28;20592;-40
2021/10/20 06:29:47;;;;;;;4.03;3.67;;;14.00;83.20;;;;;;5077260;28;20236;-40
2021/10/20 06:32:13;;;;;;;4.47;4.07;;;14.10;83.20;;;;;;5077731;28;21087;-43
2021/10/20 06:34:39;;;;;;;6.43;4.70;;;14.20;83.20;;;;;;5084540;28;20577;-39
2021/10/20 06:37:04;;;;;;;4.17;3.77;;;14.30;83.10;;;;;;5097262;28;20248;-42
2021/10/20 06:39:30;;;;;;;4.20;3.70;;;14.40;82.90;;;;;;5096613;28;20279;-40
2021/10/20 06:41:56;;;;;;;4.77;4.00;;;14.60;82.80;;;;;;5096473;28;20185;-41
2021/10/20 06:44:22;;;;;;;6.73;3.90;;;14.80;82.30;;;;;;5095709;28;20422;-40
2021/10/20 06:46:48;;;;;;;7.10;4.20;;;14.90;81.60;;;;;;5095950;28;20550;-41
2021/10/20 06:49:14;;;;;;;3.60;3.30;;;15.10;80.70;;;;;;5095493;28;20177;-42
2021/10/20 06:51:40;;;;;;;4.33;3.83;;;15.30;80.20;;;;;;5095355;28;20477;-42
2021/10/20 06:54:06;;;;;;;4.13;3.73;;;15.50;80.00;;;;;;5095381;28;20411;-41
2021/10/20 06:56:31;;;;;;;4.23;3.40;;;15.70;79.50;;;;;;5094232;28;20515;-41
2021/10/20 06:58:57;;;;;;;3.90;3.60;;;16.00;79.20;;;;;;5075948;28;20166;-42
2021/10/20 07:01:23;;;;;;;4.63;4.13;;;16.30;78.90;;;;;;5076616;28;20499;-42
2021/10/20 07:03:48;;;;;;;4.47;4.07;;;16.50;78.20;;;;;;5077295;28;20191;-42
2021/10/20 07:06:14;;;;;;;4.63;4.00;;;16.80;78.10;;;;;;5076100;28;20228;-42
2021/10/20 07:08:40;;;;;;;5.13;4.47;;;17.10;76.80;;;;;;5076270;28;20177;-40
2021/10/20 07:11:05;;;;;;;6.70;4.50;;;17.30;75.70;;;;;;5075650;28;20603;-41
2021/10/20 07:13:31;;;;;;;4.77;4.37;;;17.60;75.10;;;;;;5076463;28;20170;-42
2021/10/20 07:15:58;;;;;;;4.37;3.70;;;17.80;73.70;;;;;;5074842;28;20217;-41
2021/10/20 07:18:26;;;;;;;4.27;3.53;;;17.90;72.30;;;;;;5074089;28;20180;-43
2021/10/20 07:20:52;;;;;;;4.50;4.00;;;18.10;70.80;;;;;;5073446;28;20439;-42
2021/10/20 07:23:18;;;;;;;4.90;3.73;;;18.20;69.60;;;;;;5073853;28;20485;-41
2021/10/20 07:25:44;;;;;;;4.53;3.70;;;18.30;69.10;;;;;;5089327;28;20447;-42
2021/10/20 07:28:09;;;;;;;4.17;3.80;;;18.50;68.60;;;;;;5096317;28;20234;-41
2021/10/20 07:30:36;;;;;;;6.30;4.07;;;18.70;68.00;;;;;;5096627;28;20307;-42
2021/10/20 07:33:02;;;;;;;4.77;4.27;;;18.80;67.10;;;;;;5096903;28;20505;-41
2021/10/20 07:35:28;;;;;;;4.20;3.77;;;19.00;66.40;;;;;;5096042;28;20537;-41
2021/10/20 07:37:54;;;;;;;12.50;5.10;;;19.20;65.40;;;;;;5097329;28;20445;-41
2021/10/20 07:40:20;;;;;;;11.27;6.23;;;19.30;64.90;;;;;;5097513;28;20192;-43
2021/10/20 07:42:45;;;;;;;10.43;4.40;;;19.50;64.30;;;;;;5097573;28;20181;-43
2021/10/20 07:45:14;;;;;;;4.20;3.50;;;19.70;64.70;;;;;;5097424;28;20552;-42
2021/10/20 07:47:41;;;;;;;4.00;3.20;;;20.00;66.50;;;;;;5096196;28;20257;-42
2021/10/20 07:50:08;;;;;;;3.87;2.97;;;20.40;68.10;;;;;;5095004;28;20437;-42
2021/10/20 07:52:33;;;;;;;4.43;3.20;;;20.80;68.50;;;;;;5095016;28;20457;-40
2021/10/20 07:55:00;;;;;;;3.43;3.10;;;21.70;67.90;;;;;;5093777;28;20456;-40
2021/10/20 07:57:28;;;;;;;4.47;3.50;;;22.80;64.70;;;;;;5095314;28;20184;-41
2021/10/20 07:59:53;;;;;;;3.60;3.03;;;23.90;63.30;;;;;;5096123;28;20411;-42
2021/10/20 08:02:20;;;;;;;3.70;3.30;;;25.10;59.10;;;;;;5096528;28;20759;-41
2021/10/20 08:04:46;;;;;;;3.53;2.93;;;26.30;56.90;;;;;;5096001;28;20248;-41
2021/10/20 08:07:12;;;;;;;3.70;3.40;;;27.40;52.90;;;;;;5096207;28;20422;-43
2021/10/20 08:09:37;;;;;;;3.53;3.07;;;28.20;49.90;;;;;;5095592;28;20608;-44
2021/10/20 08:12:03;;;;;;;5.97;3.60;;;29.00;48.90;;;;;;5096092;28;20219;-44
2021/10/20 08:14:30;;;;;;;4.70;3.60;;;29.80;45.30;;;;;;5095810;28;20177;-42
2021/10/20 08:16:56;;;;;;;3.93;3.60;;;30.70;43.50;;;;;;5096046;28;20437;-43
2021/10/20 08:19:21;;;;;;;4.27;3.60;;;31.50;41.30;;;;;;5095888;28;20431;-40
2021/10/20 08:21:47;;;;;;;4.53;3.63;;;32.30;39.30;;;;;;5095866;28;20482;-41
2021/10/20 08:24:12;;;;;;;6.10;3.47;;;33.00;38.00;;;;;;5095285;28;20191;-41
2021/10/20 08:26:38;;;;;;;4.30;3.77;;;33.40;36.90;;;;;;5095948;28;20244;-42
2021/10/20 08:29:04;;;;;;;5.83;4.20;;;33.70;36.10;;;;;;5096933;28;20298;-41
2021/10/20 08:31:29;;;;;;;4.60;4.20;;;34.20;35.20;;;;;;5096602;28;20216;-43
2021/10/20 08:33:55;;;;;;;7.27;4.10;;;34.30;34.80;;;;;;5095577;28;20552;-41
2021/10/20 08:36:20;;;;;;;4.30;3.70;;;34.50;34.20;;;;;;5096659;28;20245;-41
2021/10/20 08:38:46;;;;;;;3.80;3.40;;;34.10;34.10;;;;;;5095818;28;20188;-41
2021/10/20 08:41:12;;;;;;;7.50;3.60;;;33.80;34.30;;;;;;5097192;28;20254;-41
2021/10/20 08:43:38;;;;;;;4.10;3.57;;;33.00;34.50;;;;;;5096317;28;20190;-43
2021/10/20 08:46:04;;;;;;;3.87;3.57;;;32.10;34.90;;;;;;5095071;28;20437;-40
2021/10/20 08:48:30;;;;;;;4.30;3.90;;;31.50;35.90;;;;;;5095618;28;20856;-42
2021/10/20 08:50:59;;;;;;;3.17;2.97;;;31.50;36.30;;;;;;5095357;28;20211;-44
2021/10/20 08:53:25;;;;;;;3.87;3.50;;;31.70;36.00;;;;;;5096877;28;20393;-44
2021/10/20 08:55:51;;;;;;;3.13;2.80;;;31.80;35.70;;;;;;5095802;28;20407;-40
2021/10/20 08:58:18;;;;;;;5.37;3.80;;;31.80;35.60;;;;;;5095192;28;20478;-42
2021/10/20 09:00:44;;;;;;;4.10;3.73;;;32.10;35.30;;;;;;5095603;28;20421;-41
2021/10/20 09:03:11;;;;;;;4.07;3.70;;;32.20;35.00;;;;;;5096763;28;20481;-41
2021/10/20 09:05:36;;;;;;;3.60;3.30;;;32.60;35.00;;;;;;5096111;28;20201;-40
2021/10/20 09:08:02;;;;;;;4.00;3.70;;;33.10;34.50;;;;;;5095343;28;20840;-41
2021/10/20 09:10:30;;;;;;;3.80;3.20;;;33.70;33.90;;;;;;5096547;28;20311;-40
2021/10/20 09:12:57;;;;;;;4.00;3.60;;;33.80;33.30;;;;;;5094436;28;20190;-43
2021/10/20 09:15:26;;;;;;;3.63;3.33;;;34.00;33.50;;;;;;5093627;28;20883;-41
2021/10/20 09:17:57;;;;;;;3.83;3.53;;;34.50;33.20;;;;;;5084887;28;20522;-44
2021/10/20 09:20:33;;;;;;;4.03;3.73;;;34.10;32.80;;;;;;5074917;28;20417;-43
2021/10/20 09:23:06;;;;;;;3.53;3.20;;;34.00;33.00;;;;;;5075317;28;20456;-41
2021/10/20 09:25:46;;;;;;;4.77;4.23;;;34.10;33.10;;;;;;5075621;28;20782;-43
2021/10/20 09:28:24;;;;;;;4.90;3.30;;;33.70;33.20;;;;;;5074178;28;20479;-41
2021/10/20 09:30:50;;;;;;;4.13;3.50;;;33.00;34.40;;;;;;5073009;28;20471;-42
2021/10/20 09:33:16;;;;;;;4.30;3.27;;;32.40;34.80;;;;;;5072804;28;20387;-43
2021/10/20 09:35:43;;;;;;;3.97;3.60;;;32.00;35.20;;;;;;5073293;28;20461;-43
2021/10/20 09:38:10;;;;;;;3.80;3.50;;;32.20;35.50;;;;;;5073786;28;20386;-41
2021/10/20 09:40:45;;;;;;;4.07;3.67;;;33.20;35.00;;;;;;5074132;28;20455;-42
2021/10/20 09:43:13;;;;;;;5.90;3.20;;;34.30;34.40;;;;;;5074446;28;20396;-43
2021/10/20 09:45:41;;;;;;;3.93;3.00;;;35.20;33.50;;;;;;5080707;28;20554;-43
2021/10/20 09:48:11;;;;;;;3.50;3.20;;;36.00;33.50;;;;;;5098819;28;20441;-42
2021/10/20 09:51:22;;;;;;;4.00;3.60;;;36.40;31.90;;;;;;5098798;28;20474;-42
2021/10/20 09:53:51;;;;;;;4.83;3.77;;;36.80;31.70;;;;;;5080930;28;20400;-42
2021/10/20 09:56:27;;;;;;;3.20;3.00;;;37.00;31.50;;;;;;5080277;28;20432;-42
2021/10/20 09:58:54;;;;;;;4.47;3.80;;;36.90;31.60;;;;;;5098496;28;20768;-43
2021/10/20 10:01:26;;;;;;;3.70;3.40;;;36.80;32.10;;;;;;5098395;28;20221;-44
2021/10/20 10:03:54;;;;;;;3.53;3.23;;;37.00;32.00;;;;;;5098829;28;20809;-45
2021/10/20 10:06:20;;;;;;;3.60;3.30;;;37.20;31.70;;;;;;5096728;28;20398;-42
2021/10/20 10:08:47;;;;;;;3.40;3.10;;;37.20;31.20;;;;;;5095516;28;20402;-41
2021/10/20 10:11:12;;;;;;;3.30;3.00;;;37.10;31.10;;;;;;5096069;28;20183;-44
2021/10/20 10:13:51;;;;;;;3.30;3.00;;;36.90;31.50;;;;;;5096211;28;20843;-44
2021/10/20 10:16:23;;;;;;;3.80;2.93;;;37.10;31.40;;;;;;5096542;28;20551;-41
2021/10/20 10:18:48;;;;;;;4.60;4.10;;;36.90;31.50;;;;;;5095536;28;20416;-42
2021/10/20 10:21:37;;;;;;;4.90;3.80;;;37.00;31.00;;;;;;5096280;28;20475;-40
2021/10/20 10:24:07;;;;;;;5.70;3.07;;;36.90;31.00;;;;;;5095312;28;20939;-41
2021/10/20 10:26:38;;;;;;;3.20;3.00;;;37.20;31.10;;;;;;5096067;28;20431;-43
2021/10/20 10:29:09;;;;;;;3.80;3.03;;;37.40;30.40;;;;;;5096000;28;20492;-43
2021/10/20 10:31:37;;;;;;;4.20;3.33;;;37.40;30.70;;;;;;5097330;28;20586;-43
2021/10/20 10:34:02;;;;;;;3.40;3.10;;;37.50;30.70;;;;;;5097205;28;20417;-42
2021/10/20 10:36:28;;;;;;;3.90;3.20;;;37.50;30.80;;;;;;5098186;28;20437;-42
2021/10/20 10:39:00;;;;;;;3.33;2.70;;;36.60;31.20;;;;;;5097638;28;20172;-44
2021/10/20 10:41:30;;;;;;;4.43;3.40;;;35.90;31.80;;;;;;5098401;28;20697;-44
2021/10/20 10:44:08;;;;;;;3.53;3.23;;;35.50;32.10;;;;;;5097564;28;20410;-46
2021/10/20 10:46:36;;;;;;;6.90;3.00;;;35.60;32.00;;;;;;5098497;28;20399;-44
2021/10/20 10:49:03;;;;;;;3.03;2.73;;;35.40;32.10;;;;;;5098257;28;20387;-44
2021/10/20 10:51:30;;;;;;;3.37;3.07;;;35.90;32.20;;;;;;5097614;28;20424;-45
2021/10/20 10:53:59;;;;;;;3.27;2.97;;;37.30;31.70;;;;;;5096936;28;20418;-43
2021/10/20 10:56:26;;;;;;;4.57;3.50;;;38.80;30.60;;;;;;5093531;28;20424;-43
2021/10/20 10:58:58;;;;;;;3.23;3.03;;;39.60;30.00;;;;;;5094825;28;20566;-41
2021/10/20 11:01:43;;;;;;;3.20;2.90;;;39.60;29.70;;;;;;5096513;28;20530;-41
2021/10/20 11:04:17;;;;;;;3.87;3.47;;;39.70;29.50;;;;;;5095772;28;20429;-42
2021/10/20 11:06:43;;;;;;;3.20;2.63;;;40.40;29.60;;;;;;5095638;28;20527;-44
2021/10/20 11:09:09;;;;;;;3.73;3.43;;;40.30;29.30;;;;;;5094812;28;20430;-44
2021/10/20 11:11:35;;;;;;;3.00;2.70;;;39.30;29.20;;;;;;5095459;28;20431;-42
2021/10/20 11:14:01;;;;;;;3.07;2.77;;;38.20;29.60;;;;;;5095809;28;20190;-44
2021/10/20 11:16:27;;;;;;;4.10;3.00;;;37.60;30.00;;;;;;5094368;28;20434;-43
2021/10/20 11:18:53;;;;;;;3.03;2.83;;;37.40;30.10;;;;;;5092679;28;20836;-43
2021/10/20 11:21:23;;;;;;;3.00;2.80;;;37.00;30.30;;;;;;5092810;28;20204;-46
2021/10/20 11:23:49;;;;;;;3.50;3.20;;;36.40;30.60;;;;;;5093484;28;20411;-44
2021/10/20 11:26:15;;;;;;;2.83;2.63;;;35.60;31.00;;;;;;5093738;28;20400;-45
2021/10/20 11:28:41;;;;;;;4.27;2.80;;;34.80;31.60;;;;;;5093680;28;20473;-41
2021/10/20 11:31:10;;;;;;;2.77;2.57;;;34.20;32.30;;;;;;5094294;28;20428;-41
2021/10/20 11:33:36;;;;;;;3.03;2.83;;;34.90;32.40;;;;;;5095082;28;20593;-45
2021/10/20 11:36:03;;;;;;;2.83;2.63;;;35.60;31.60;;;;;;5095814;28;20399;-47
2021/10/20 11:38:34;;;;;;;3.23;2.93;;;37.10;31.10;;;;;;5095938;28;20459;-39
2021/10/20 11:41:00;;;;;;;2.90;2.37;;;38.70;30.30;;;;;;5096630;28;20505;-45
2021/10/20 11:43:35;;;;;;;4.27;2.73;;;40.20;29.50;;;;;;5096967;28;20465;-47
2021/10/20 11:46:01;;;;;;;3.20;3.00;;;41.50;28.90;;;;;;5095440;28;20422;-46
2021/10/20 11:48:26;;;;;;;2.70;2.40;;;42.90;28.10;;;;;;5095581;28;20409;-44
2021/10/20 11:50:55;;;;;;;2.90;2.60;;;43.90;27.50;;;;;;5094256;28;20466;-43
2021/10/20 11:53:21;;;;;;;2.90;2.60;;;44.60;27.00;;;;;;5095126;28;20171;-41
2021/10/20 11:55:49;;;;;;;2.77;2.57;;;45.10;27.00;;;;;;5095365;28;20424;-43
2021/10/20 11:58:21;;;;;;;2.63;2.43;;;45.60;26.80;;;;;;5094841;28;20424;-42
2021/10/20 12:00:52;;;;;;;3.00;2.80;;;46.20;26.60;;;;;;5094258;28;21106;-46
2021/10/20 12:03:17;;;;;;;2.90;2.70;;;46.70;26.00;;;;;;5095910;28;20441;-42
2021/10/20 12:05:43;;;;;;;2.80;2.60;;;46.40;25.70;;;;;;5094218;28;20770;-43
2021/10/20 12:08:09;;;;;;;2.77;2.57;;;46.20;25.90;;;;;;5094287;28;20323;-41
2021/10/20 12:10:35;;;;;;;3.23;2.93;;;45.70;26.00;;;;;;5096074;28;20188;-41
2021/10/20 12:13:02;;;;;;;2.93;2.63;;;45.20;26.10;;;;;;5094238;28;20184;-41
2021/10/20 12:15:28;;;;;;;3.20;2.80;;;45.20;26.40;;;;;;5093138;28;20439;-40
2021/10/20 12:17:55;;;;;;;3.43;3.13;;;45.80;26.40;;;;;;5095135;28;20856;-44
2021/10/20 12:20:21;;;;;;;3.40;3.10;;;46.80;26.00;;;;;;5093817;28;20270;-41
2021/10/20 12:22:48;;;;;;;3.27;2.70;;;47.30;25.60;;;;;;5094242;28;20501;-44
2021/10/20 12:25:15;;;;;;;2.70;2.50;;;47.40;25.60;;;;;;5093270;28;20183;-42
2021/10/20 12:27:42;;;;;;;2.90;2.70;;;46.90;25.70;;;;;;5093473;28;20532;-52
2021/10/20 12:30:09;;;;;;;3.40;3.00;;;46.20;26.00;;;;;;5095662;28;20473;-41
2021/10/20 12:32:36;;;;;;;2.87;2.67;;;45.40;25.90;;;;;;5096261;28;20460;-42
2021/10/20 12:35:10;;;;;;;2.93;2.73;;;44.00;26.30;;;;;;5096338;28;20433;-42
2021/10/20 12:37:42;;;;;;;3.63;3.33;;;42.20;27.00;;;;;;5096200;28;20411;-42
2021/10/20 12:40:25;;;;;;;3.00;2.80;;;40.50;27.70;;;;;;5094674;28;20429;-41
2021/10/20 12:43:05;;;;;;;3.83;2.90;;;38.50;28.60;;;;;;5095941;28;20462;-41
2021/10/20 12:45:32;;;;;;;2.80;2.60;;;36.60;29.80;;;;;;5096274;28;20828;-41